| Record Date MM/DD/YYYY | Record Time HH:MM:SS | Record Julian Date NNN day of the year | Air Temperature Max (Degrees Fahrenheit F) | Time Max Air Temperature HH:MM:SS This is the time of max air temp for the prior hour interval listed for record [Time]. | Air Temperature Min (Degrees Fahrenheit F) | Time Min Air Temperature HH:MM:SS This is the time of min air temp for the prior hour interval listed for record [Time]. | Air Temperature Observed (Degrees Fahrenheit F) This is an instantaneous reading at the record [Time]. | Relative Humidity Max (Percent) | Time Max Relative Humidity HH:MM:SS This is the time of max relative humidity for the prior hour interval listed for record [Time]. | Relative Humidity Min (Percent) | Time Min Relative Humidity HH:MM:SS This is the time of min relative humidity for the prior hour interval listed for record [Time]. | Relative Humidity Observed (Percent) This is an instantaneous reading at the record [Time]. | Precipitation (Inches n.nn) rain fall that occurred during the prior hour interval listed for record [Time]. | Wind Speed (Miles Per Hour) Resultant Speed that occurred during the prior hour interval listed for record [Time]. | Wind Direction (Degrees) Resultant Direction that occurred during the prior hour interval listed for record [Time]. | Solar Radiation (Langley's) that occurred during the prior hour interval listed for record [Time]. | Soil Temperature Average at 2 inch depth (Degrees Fahrenheit F) that occurred during the prior hour interval listed for record [Time]. | Soil Temperature Observed at 2 inch depth (Degrees Fahrenheit F) This is an instantaneous reading at the record [Time]. | Soil Temperature Average at 4 inch depth (Degrees Fahrenheit F) that occurred during the prior hour interval listed for record [Time]. | Soil Temperature Observed at 4 inch depth (Degrees Fahrenheit F) This is an instantaneous reading at the record [Time]. |
|---|---|---|---|---|---|---|---|---|---|---|---|---|---|---|---|---|---|---|---|---|
| 04/29/2026 | 0:00:00 | 119 | 70 | 23:02:01 | 68 | 23:28:04 | 70 | 93 | 23:58:01 | 88 | 23:14:01 | 92.9 | 0.52 | 3.8 | 237 | 71 | 71 | 72 | 72 | |
| 04/29/2026 | 1:00:00 | 119 | 70 | 0:03:02 | 69 | 0:42:02 | 70 | 93 | 0:02:00 | 89 | 0:58:00 | 88.8 | 0.03 | 3.7 | 247 | 71 | 71 | 72 | 71 | |
| 04/29/2026 | 2:00:00 | 119 | 70 | 1:00:03 | 69 | 1:49:00 | 69 | 93 | 1:57:03 | 89 | 1:00:01 | 92.5 | 0 | 0.0 | 244 | 71 | 71 | 71 | 71 | |
| 04/29/2026 | 3:00:00 | 119 | 70 | 2:52:01 | 69 | 2:01:05 | 70 | 93 | 2:31:01 | 92 | 3:00:00 | 92.3 | 0 | 0.0 | 0 | 71 | 71 | 71 | 71 | |
| 04/29/2026 | 4:00:00 | 119 | 70 | 3:05:05 | 69 | 3:57:02 | 70 | 93 | 3:59:01 | 92 | 3:20:03 | 93 | 0 | 0.0 | 0 | 71 | 71 | 71 | 71 | |
| 04/29/2026 | 5:00:00 | 119 | 70 | 4:03:01 | 69 | 4:23:02 | 70 | 94 | 4:40:01 | 93 | 4:00:03 | 93.6 | 0 | 0.0 | 0 | 71 | 71 | 71 | 71 | |
| 04/29/2026 | 6:00:00 | 119 | 70 | 5:50:00 | 70 | 5:03:05 | 70 | 94 | 5:09:03 | 92 | 5:58:05 | 92.4 | 0 | 0.1 | 312 | 71 | 71 | 71 | 71 | |
| 04/29/2026 | 7:00:00 | 119 | 70 | 6:00:01 | 68 | 7:00:00 | 68 | 92 | 6:00:01 | 90 | 6:59:04 | 89.6 | 0 | 1.0 | 330 | 71 | 71 | 71 | 71 | |
| 04/29/2026 | 8:00:00 | 119 | 69 | 7:58:03 | 68 | 7:13:00 | 69 | 90 | 7:09:01 | 88 | 7:59:00 | 88.6 | 0 | 1.1 | 341 | 71 | 71 | 71 | 71 | |
| 04/29/2026 | 9:00:00 | 119 | 70 | 8:34:00 | 68 | 8:57:00 | 68 | 89 | 8:01:01 | 85 | 8:36:03 | 86.8 | 0 | 2.0 | 337 | 71 | 71 | 71 | 71 | |
| 04/29/2026 | 10:00:00 | 119 | 69 | 9:48:00 | 68 | 9:24:01 | 69 | 87 | 9:00:02 | 82 | 9:52:05 | 83.2 | 0 | 2.9 | 355 | 72 | 72 | 71 | 71 | |
| 04/29/2026 | 11:00:00 | 119 | 70 | 10:27:03 | 69 | 10:00:02 | 70 | 84 | 10:01:05 | 78 | 10:31:04 | 81.4 | 0 | 3.0 | 356 | 73 | 73 | 72 | 72 | |
| 04/29/2026 | 12:00:00 | 119 | 72 | 11:58:01 | 70 | 11:00:02 | 72 | 82 | 11:04:00 | 74 | 11:58:04 | 76.01 | 0 | 2.9 | 9 | 74 | 74 | 72 | 73 | |
| 04/29/2026 | 13:00:00 | 119 | 72 | 12:10:00 | 70 | 12:58:02 | 70 | 82 | 12:16:03 | 75 | 12:06:05 | 78.77 | 0 | 1.4 | 8 | 75 | 75 | 73 | 74 | |
| 04/29/2026 | 14:00:00 | 119 | 70 | 13:00:00 | 69 | 13:43:01 | 69 | 82 | 13:41:01 | 78 | 13:00:02 | 79.62 | 0 | 3.0 | 3 | 75 | 75 | 74 | 74 | |
| 04/29/2026 | 15:00:00 | 119 | 70 | 14:04:02 | 68 | 14:59:02 | 68 | 83 | 14:12:03 | 79 | 14:00:02 | 82.7 | 0 | 1.3 | 4 | 75 | 74 | 74 | 74 | |
| 04/29/2026 | 16:00:00 | 119 | 68 | 15:07:04 | 67 | 15:40:05 | 67 | 84 | 15:49:04 | 82 | 15:59:05 | 81.9 | 0 | 1.4 | 0 | 74 | 73 | 74 | 73 | |
| 04/29/2026 | 17:00:00 | 119 | 68 | 16:30:01 | 67 | 16:59:03 | 67 | 83 | 16:01:04 | 80 | 16:27:05 | 81.2 | 0 | 2.4 | 358 | 73 | 72 | 73 | 73 | |
| 04/29/2026 | 18:00:00 | 119 | 67 | 17:00:05 | 66 | 17:59:02 | 66 | 82 | 17:55:02 | 80 | 17:05:01 | 81.6 | 0 | 2.7 | 16 | 72 | 71 | 72 | 72 | |
| 04/29/2026 | 19:00:00 | 119 | 66 | 18:02:05 | 65 | 18:35:05 | 65 | 82 | 18:17:00 | 81 | 18:30:01 | 81 | 0 | 2.2 | 5 | 71 | 70 | 72 | 71 | |
| 04/29/2026 | 20:00:00 | 119 | 65 | 19:12:00 | 65 | 19:57:03 | 65 | 82 | 19:17:03 | 80 | 19:29:03 | 80.8 | 0 | 1.5 | 13 | 70 | 69 | 71 | 71 | |
| 04/29/2026 | 21:00:00 | 119 | 65 | 20:34:02 | 64 | 20:58:05 | 65 | 81 | 20:00:05 | 79 | 20:33:05 | 80.1 | 0 | 1.7 | 20 | 69 | 69 | 70 | 70 | |
| 04/29/2026 | 22:00:00 | 119 | 65 | 21:02:00 | 64 | 21:54:02 | 64 | 82 | 21:59:02 | 79 | 21:07:03 | 81.6 | 0 | 0.7 | 20 | 68 | 68 | 70 | 69 | |
| 04/29/2026 | 23:00:00 | 119 | 64 | 22:58:01 | 64 | 22:02:05 | 64 | 82 | 22:29:00 | 81 | 22:58:05 | 81.1 | 0 | 0.7 | 34 | 68 | 68 | 69 | 69 | |
| 04/30/2026 | 0:00:00 | 120 | 64 | 23:00:02 | 63 | 23:56:02 | 63 | 86 | 23:59:03 | 80 | 23:05:05 | 86.1 | 0.02 | 0.4 | 11 | 67 | 67 | 69 | 69 | |
| 04/30/2026 | 1:00:00 | 120 | 63 | 0:01:01 | 62 | 0:44:04 | 62 | 86 | 0:06:01 | 81 | 0:58:02 | 81.1 | 0 | 0.1 | 19 | 67 | 67 | 68 | 68 | |
| 04/30/2026 | 2:00:00 | 120 | 62 | 1:03:04 | 61 | 1:51:03 | 62 | 82 | 1:30:05 | 80 | 1:39:04 | 80.5 | 0 | 0.0 | 0 | 67 | 66 | 68 | 68 | |
| 04/30/2026 | 3:00:00 | 120 | 62 | 2:01:01 | 60 | 2:59:04 | 60 | 81 | 2:03:05 | 78 | 2:42:02 | 78.78 | 0 | 0.1 | 22 | 66 | 66 | 68 | 68 | |
| 04/30/2026 | 4:00:00 | 120 | 60 | 3:01:04 | 59 | 3:59:01 | 59 | 80 | 3:32:02 | 78 | 3:58:00 | 78.33 | 0 | 0.3 | 22 | 65 | 65 | 67 | 67 | |
| 04/30/2026 | 5:00:00 | 120 | 59 | 4:00:03 | 59 | 4:57:01 | 59 | 79 | 4:08:05 | 76 | 4:59:02 | 77.06 | 0 | 0.6 | 34 | 65 | 64 | 67 | 66 | |
| 04/30/2026 | 6:00:00 | 120 | 59 | 5:13:05 | 58 | 5:45:00 | 58 | 77 | 5:00:02 | 73 | 5:58:05 | 73.41 | 0 | 1.2 | 40 | 64 | 64 | 66 | 66 | |
| 04/30/2026 | 7:00:00 | 120 | 59 | 6:31:04 | 58 | 6:00:03 | 58 | 75 | 6:04:04 | 71 | 6:39:03 | 71.42 | 0 | 3.3 | 43 | 63 | 64 | 66 | 65 | |
| 04/30/2026 | 8:00:00 | 120 | 60 | 7:34:00 | 58 | 7:03:01 | 59 | 73 | 7:01:05 | 67 | 7:57:01 | 67.49 | 0 | 1.7 | 53 | 64 | 64 | 65 | 65 | |
| 04/30/2026 | 9:00:00 | 120 | 61 | 8:51:04 | 59 | 8:00:03 | 61 | 69 | 8:10:00 | 63 | 8:58:00 | 64.48 | 0 | 1.9 | 50 | 65 | 65 | 65 | 66 | |
| 04/30/2026 | 10:00:00 | 120 | 63 | 9:39:02 | 61 | 9:00:04 | 62 | 67 | 9:03:00 | 60 | 9:49:03 | 62.1 | 0 | 3.0 | 53 | 67 | 68 | 66 | 66 | |
| 04/30/2026 | 11:00:00 | 120 | 65 | 10:40:03 | 62 | 10:05:04 | 64 | 65 | 10:36:01 | 58 | 10:43:00 | 60.5 | 0 | 0.8 | 63 | 69 | 70 | 67 | 68 | |
| 04/30/2026 | 12:00:00 | 120 | 66 | 11:36:02 | 64 | 11:00:01 | 66 | 66 | 11:14:02 | 57 | 11:47:01 | 61.03 | 0 | 0.5 | 35 | 71 | 72 | 69 | 69 | |
| 04/30/2026 | 13:00:00 | 120 | 68 | 12:52:05 | 66 | 12:11:05 | 67 | 63 | 12:01:01 | 55 | 12:54:03 | 56.75 | 0 | 0.6 | 30 | 73 | 73 | 70 | 71 | |
| 04/30/2026 | 14:00:00 | 120 | 67 | 13:27:00 | 67 | 13:56:04 | 67 | 62 | 13:26:03 | 55 | 13:01:01 | 58.39 | 0 | 0.3 | 19 | 73 | 73 | 71 | 71 | |
| 04/30/2026 | 15:00:00 | 120 | 67 | 14:48:01 | 66 | 14:27:04 | 67 | 61 | 14:14:03 | 55 | 14:56:04 | 59.6 | 0 | 0.7 | 26 | 72 | 72 | 71 | 71 | |
| 04/30/2026 | 16:00:00 | 120 | 67 | 15:01:04 | 66 | 15:51:05 | 66 | 60 | 15:39:00 | 55 | 15:29:00 | 59.55 | 0 | 0.2 | 42 | 71 | 71 | 71 | 71 | |
| 04/30/2026 | 17:00:00 | 120 | 67 | 16:02:01 | 66 | 16:50:05 | 66 | 62 | 16:02:02 | 55 | 16:28:04 | 55.99 | 0 | 0.1 | 32 | 70 | 70 | 70 | 70 | |
| 04/30/2026 | 18:00:00 | 120 | 66 | 17:01:02 | 65 | 17:59:05 | 65 | 61 | 17:56:00 | 55 | 17:28:05 | 59.14 | 0 | 0.2 | 21 | 69 | 69 | 70 | 70 | |
| 04/30/2026 | 19:00:00 | 120 | 65 | 18:01:01 | 63 | 18:58:04 | 63 | 66 | 18:53:04 | 59 | 18:00:00 | 64.05 | 0 | 0.0 | 23 | 68 | 68 | 69 | 69 | |
| 04/30/2026 | 20:00:00 | 120 | 63 | 19:01:03 | 62 | 19:56:04 | 62 | 68 | 19:37:04 | 64 | 19:00:00 | 66.06 | 0 | 0.0 | 0 | 67 | 67 | 69 | 68 | |
| 04/30/2026 | 21:00:00 | 120 | 62 | 20:00:00 | 61 | 20:58:05 | 61 | 67 | 20:13:05 | 63 | 20:41:05 | 64.97 | 0 | 0.2 | 35 | 66 | 66 | 68 | 68 | |
| 04/30/2026 | 22:00:00 | 120 | 61 | 21:03:05 | 60 | 21:58:00 | 60 | 66 | 21:13:00 | 63 | 21:28:04 | 64.36 | 0 | 0.1 | 33 | 65 | 65 | 67 | 67 | |
| 04/30/2026 | 23:00:00 | 120 | 60 | 22:00:01 | 59 | 22:58:05 | 59 | 69 | 22:43:02 | 64 | 22:00:04 | 67.89 | 0 | 0.0 | 0 | 65 | 64 | 66 | 66 | |
| 05/01/2026 | 0:00:00 | 121 | 59 | 23:00:01 | 58 | 23:59:00 | 58 | 71 | 23:59:04 | 67 | 23:05:01 | 70.56 | 0 | 0.0 | 0 | 64 | 64 | 66 | 66 | |
| 05/01/2026 | 1:00:00 | 121 | 58 | 0:00:05 | 58 | 0:38:03 | 58 | 73 | 0:36:02 | 69 | 0:59:00 | 70.28 | 0 | 0.0 | 0 | 64 | 64 | 65 | 65 | |
| 05/01/2026 | 2:00:00 | 121 | 58 | 1:04:03 | 57 | 1:45:05 | 57 | 73 | 1:45:00 | 70 | 1:02:03 | 71.82 | 0 | 0.0 | 0 | 63 | 63 | 65 | 65 | |
| 05/01/2026 | 3:00:00 | 121 | 57 | 2:01:05 | 57 | 2:30:00 | 57 | 78 | 2:36:04 | 72 | 2:00:00 | 76.14 | 0 | 0.0 | 0 | 63 | 63 | 65 | 65 | |
| 05/01/2026 | 4:00:00 | 121 | 57 | 3:00:00 | 56 | 3:37:02 | 56 | 80 | 3:26:04 | 75 | 3:08:05 | 77.12 | 0 | 0.0 | 0 | 63 | 63 | 64 | 64 | |
| 05/01/2026 | 5:00:00 | 121 | 56 | 4:02:04 | 56 | 4:57:00 | 56 | 80 | 4:55:04 | 77 | 4:01:03 | 78.86 | 0 | 0.0 | 0 | 62 | 62 | 64 | 64 | |
| 05/01/2026 | 6:00:00 | 121 | 56 | 5:22:02 | 56 | 5:48:02 | 56 | 79 | 5:00:01 | 75 | 5:34:04 | 75.25 | 0 | 0.0 | 30 | 62 | 62 | 64 | 64 | |
| 05/01/2026 | 7:00:00 | 121 | 57 | 6:59:00 | 56 | 6:09:01 | 57 | 77 | 6:13:04 | 73 | 6:57:02 | 73.36 | 0 | 0.0 | 0 | 62 | 62 | 64 | 63 | |
| 05/01/2026 | 8:00:00 | 121 | 58 | 7:59:05 | 57 | 7:00:01 | 58 | 75 | 7:26:03 | 72 | 7:33:03 | 73.73 | 0 | 0.1 | 22 | 62 | 62 | 63 | 63 | |
| 05/01/2026 | 9:00:00 | 121 | 60 | 8:59:05 | 58 | 8:03:01 | 60 | 75 | 8:13:03 | 70 | 8:58:02 | 71.21 | 0 | 0.0 | 21 | 62 | 63 | 63 | 64 | |
| 05/01/2026 | 10:00:00 | 121 | 61 | 9:50:05 | 60 | 9:01:04 | 61 | 72 | 9:01:00 | 67 | 9:24:01 | 68.49 | 0 | 0.0 | 9 | 63 | 63 | 64 | 64 | |
| 05/01/2026 | 11:00:00 | 121 | 63 | 10:58:00 | 61 | 10:01:04 | 62 | 69 | 10:05:01 | 62 | 10:52:04 | 63.62 | 0 | 0.1 | 19 | 64 | 64 | 64 | 64 | |
| 05/01/2026 | 12:00:00 | 121 | 63 | 11:37:02 | 62 | 11:02:00 | 63 | 65 | 11:29:00 | 60 | 11:47:00 | 62 | 0 | 0.1 | 32 | 65 | 65 | 65 | 65 | |
| 05/01/2026 | 13:00:00 | 121 | 64 | 12:55:03 | 63 | 12:07:05 | 64 | 65 | 12:15:02 | 60 | 12:48:04 | 62.46 | 0 | 0.6 | 21 | 66 | 66 | 65 | 65 | |
| 05/01/2026 | 14:00:00 | 121 | 65 | 13:56:00 | 64 | 13:17:03 | 65 | 65 | 13:20:01 | 60 | 13:53:03 | 60.96 | 0 | 0.6 | 12 | 66 | 67 | 66 | 66 | |
| 05/01/2026 | 15:00:00 | 121 | 66 | 14:22:04 | 65 | 14:45:02 | 65 | 63 | 14:00:04 | 56 | 14:57:01 | 57.57 | 0 | 2.0 | 15 | 67 | 67 | 66 | 66 | |
| 05/01/2026 | 16:00:00 | 121 | 66 | 15:59:04 | 65 | 15:46:05 | 66 | 60 | 15:34:01 | 54 | 15:58:05 | 54.11 | 0 | 2.5 | 14 | 67 | 67 | 67 | 67 | |
| 05/01/2026 | 17:00:00 | 121 | 66 | 16:00:00 | 65 | 16:58:04 | 65 | 60 | 16:51:02 | 53 | 16:00:04 | 59.33 | 0 | 1.5 | 10 | 68 | 68 | 67 | 67 | |
| 05/01/2026 | 18:00:00 | 121 | 65 | 17:00:01 | 63 | 17:59:04 | 63 | 62 | 17:53:04 | 58 | 17:01:02 | 59.7 | 0 | 0.8 | 357 | 67 | 66 | 67 | 67 | |
| 05/01/2026 | 19:00:00 | 121 | 63 | 18:01:01 | 61 | 18:59:00 | 61 | 63 | 18:23:04 | 58 | 18:37:05 | 60.21 | 0 | 0.2 | 1 | 66 | 65 | 66 | 66 | |
| 05/01/2026 | 20:00:00 | 121 | 61 | 19:00:03 | 59 | 20:00:00 | 59 | 66 | 19:59:05 | 59 | 19:05:05 | 65.51 | 0 | 0.0 | 0 | 65 | 64 | 66 | 66 | |
| 05/01/2026 | 21:00:00 | 121 | 59 | 20:18:02 | 58 | 20:53:00 | 58 | 67 | 20:59:05 | 63 | 20:19:02 | 66.78 | 0 | 0.0 | 0 | 64 | 63 | 65 | 65 | |
| 05/01/2026 | 22:00:00 | 121 | 59 | 21:32:01 | 58 | 21:10:05 | 58 | 68 | 21:10:03 | 62 | 21:39:05 | 63.72 | 0 | 0.0 | 0 | 63 | 63 | 65 | 64 | |
| 05/01/2026 | 23:00:00 | 121 | 59 | 22:43:00 | 58 | 22:10:02 | 59 | 66 | 22:10:00 | 59 | 22:56:00 | 60.17 | 0 | 0.0 | 0 | 62 | 62 | 64 | 64 | |
| 05/02/2026 | 0:00:00 | 122 | 59 | 23:30:03 | 59 | 23:10:04 | 59 | 62 | 23:18:03 | 56 | 23:59:04 | 56.31 | 0 | 0.0 | 0 | 62 | 62 | 64 | 63 | |
| 05/02/2026 | 1:00:00 | 122 | 59 | 0:02:05 | 57 | 1:00:00 | 57 | 62 | 1:00:00 | 56 | 0:11:03 | 62.22 | 0 | 0.0 | 0 | 61 | 61 | 63 | 63 | |
| 05/02/2026 | 2:00:00 | 122 | 57 | 1:00:01 | 54 | 1:59:03 | 54 | 71 | 2:00:00 | 62 | 1:00:03 | 71.2 | 0 | 0.0 | 0 | 61 | 60 | 63 | 62 | |
| 05/02/2026 | 3:00:00 | 122 | 54 | 2:15:04 | 52 | 2:59:00 | 52 | 74 | 2:56:02 | 69 | 2:16:02 | 73.64 | 0 | 0.0 | 0 | 60 | 60 | 62 | 62 | |
| 05/02/2026 | 4:00:00 | 122 | 52 | 3:06:04 | 51 | 3:55:00 | 51 | 75 | 3:57:01 | 72 | 3:18:05 | 74.56 | 0 | 0.0 | 0 | 59 | 59 | 62 | 61 | |
| 05/02/2026 | 5:00:00 | 122 | 51 | 4:00:02 | 50 | 4:59:05 | 50 | 78 | 5:00:00 | 74 | 4:03:00 | 77.89 | 0 | 0.0 | 0 | 59 | 58 | 61 | 61 | |
| 05/02/2026 | 6:00:00 | 122 | 51 | 5:59:05 | 50 | 5:05:03 | 51 | 78 | 5:01:02 | 74 | 5:47:04 | 74.42 | 0 | 0.0 | 0 | 58 | 58 | 61 | 60 | |
| 05/02/2026 | 7:00:00 | 122 | 56 | 6:59:00 | 51 | 6:00:04 | 56 | 74 | 6:00:00 | 67 | 6:55:03 | 68.18 | 0 | 0.0 | 0 | 58 | 58 | 60 | 60 | |
| 05/02/2026 | 8:00:00 | 122 | 60 | 7:54:04 | 55 | 7:01:02 | 59 | 69 | 7:13:00 | 60 | 7:56:03 | 62.08 | 0 | 0.0 | 0 | 59 | 60 | 60 | 61 | |
| 05/02/2026 | 9:00:00 | 122 | 65 | 8:55:02 | 59 | 8:00:01 | 64 | 63 | 8:16:04 | 49 | 8:56:03 | 53.63 | 0 | 0.0 | 0 | 62 | 64 | 61 | 62 | |
| 05/02/2026 | 10:00:00 | 122 | 66 | 9:40:00 | 64 | 9:03:03 | 65 | 58 | 9:56:00 | 45 | 9:53:02 | 47.5 | 0 | 0.0 | 304 | 66 | 68 | 63 | 64 | |
| 05/02/2026 | 11:00:00 | 122 | 68 | 10:59:00 | 65 | 10:01:04 | 67 | 57 | 10:06:04 | 39 | 10:52:03 | 49.93 | 0 | 0.7 | 297 | 69 | 71 | 66 | 67 | |
| 05/02/2026 | 12:00:00 | 122 | 69 | 11:56:02 | 67 | 11:08:01 | 69 | 52 | 11:02:01 | 36 | 11:57:03 | 42.27 | 0 | 2.6 | 320 | 72 | 74 | 68 | 69 | |
| 05/02/2026 | 13:00:00 | 122 | 71 | 12:39:01 | 68 | 12:26:02 | 70 | 49 | 12:07:05 | 34 | 12:48:05 | 38.24 | 0 | 4.8 | 328 | 75 | 75 | 70 | 71 | |
| 05/02/2026 | 14:00:00 | 122 | 71 | 13:08:00 | 69 | 13:53:05 | 70 | 45 | 13:12:01 | 34 | 13:37:01 | 42.05 | 0 | 4.4 | 323 | 76 | 75 | 71 | 72 | |
| 05/02/2026 | 15:00:00 | 122 | 71 | 14:48:00 | 69 | 14:35:01 | 71 | 49 | 14:13:04 | 36 | 14:11:04 | 43.27 | 0 | 3.8 | 309 | 74 | 74 | 72 | 72 | |
| 05/02/2026 | 16:00:00 | 122 | 72 | 15:13:03 | 70 | 15:59:03 | 70 | 47 | 15:28:01 | 37 | 15:30:02 | 41.44 | 0 | 5.3 | 308 | 74 | 74 | 72 | 72 | |
| 05/02/2026 | 17:00:00 | 122 | 71 | 16:48:02 | 69 | 16:59:04 | 69 | 46 | 16:54:02 | 39 | 16:32:00 | 42.07 | 0 | 3.6 | 337 | 73 | 72 | 72 | 71 | |
| 05/02/2026 | 18:00:00 | 122 | 70 | 17:26:04 | 68 | 17:59:03 | 68 | 48 | 17:57:01 | 42 | 17:22:03 | 46.9 | 0 | 2.5 | 332 | 71 | 70 | 71 | 70 | |
| 05/02/2026 | 19:00:00 | 122 | 68 | 18:11:01 | 65 | 18:59:01 | 65 | 59 | 18:52:04 | 46 | 18:06:05 | 55.18 | 0 | 0.1 | 325 | 69 | 68 | 70 | 69 | |
| 05/02/2026 | 20:00:00 | 122 | 65 | 19:00:01 | 58 | 19:59:04 | 58 | 73 | 19:54:04 | 53 | 19:02:00 | 73.04 | 0 | 0.0 | 0 | 67 | 67 | 69 | 68 | |
| 05/02/2026 | 21:00:00 | 122 | 59 | 20:16:04 | 56 | 20:59:04 | 56 | 78 | 20:58:04 | 70 | 20:10:02 | 77.64 | 0 | 0.0 | 0 | 66 | 65 | 68 | 67 | |
| 05/02/2026 | 22:00:00 | 122 | 56 | 21:20:01 | 55 | 21:42:04 | 56 | 81 | 21:59:03 | 74 | 21:12:04 | 81.3 | 0 | 0.0 | 0 | 65 | 64 | 67 | 66 | |
| 05/02/2026 | 23:00:00 | 122 | 56 | 22:09:04 | 54 | 22:39:00 | 56 | 83 | 22:39:05 | 78 | 22:58:02 | 79.55 | 0 | 0.0 | 0 | 64 | 63 | 66 | 65 | |
| 05/03/2026 | 0:00:00 | 123 | 56 | 23:06:04 | 55 | 23:33:00 | 56 | 80 | 23:02:01 | 72 | 23:56:01 | 71.81 | 0 | 0.0 | 0 | 63 | 62 | 65 | 64 | |
| 05/03/2026 | 1:00:00 | 123 | 58 | 0:17:00 | 56 | 0:00:00 | 56 | 72 | 0:00:00 | 62 | 0:22:01 | 65.9 | 0 | 0.8 | 59 | 62 | 61 | 64 | 64 | |
| 05/03/2026 | 2:00:00 | 123 | 56 | 1:00:02 | 54 | 1:53:04 | 54 | 72 | 1:59:05 | 66 | 1:00:00 | 71.89 | 0 | 0.2 | 77 | 61 | 61 | 63 | 63 | |
| 05/03/2026 | 3:00:00 | 123 | 54 | 2:04:02 | 50 | 3:00:00 | 50 | 82 | 3:00:00 | 71 | 2:11:03 | 81.9 | 0 | 0.0 | 0 | 60 | 60 | 63 | 62 | |
| 05/03/2026 | 4:00:00 | 123 | 51 | 3:39:03 | 49 | 3:59:05 | 49 | 84 | 3:15:00 | 79 | 3:41:04 | 83 | 0 | 0.0 | 0 | 60 | 59 | 62 | 62 | |
| 05/03/2026 | 5:00:00 | 123 | 50 | 4:06:05 | 47 | 4:59:00 | 47 | 86 | 5:00:00 | 80 | 4:10:00 | 86.3 | 0 | 0.0 | 0 | 59 | 59 | 62 | 61 | |
| 05/03/2026 | 6:00:00 | 123 | 50 | 5:59:04 | 47 | 5:19:01 | 50 | 87 | 5:53:00 | 85 | 6:00:00 | 85 | 0 | 0.0 | 0 | 58 | 58 | 61 | 61 | |
| 05/03/2026 | 7:00:00 | 123 | 55 | 6:59:04 | 50 | 6:00:00 | 55 | 85 | 6:00:00 | 74 | 6:58:01 | 74.7 | 0 | 0.3 | 146 | 58 | 59 | 61 | 61 | |
| 05/03/2026 | 8:00:00 | 123 | 58 | 7:59:03 | 55 | 7:00:00 | 58 | 76 | 7:01:00 | 61 | 7:58:04 | 63.96 | 0 | 5.2 | 140 | 60 | 61 | 61 | 61 | |
| 05/03/2026 | 9:00:00 | 123 | 63 | 8:58:02 | 58 | 8:00:01 | 63 | 66 | 8:05:04 | 56 | 8:58:05 | 57.71 | 0 | 6.2 | 144 | 63 | 64 | 62 | 62 | |
| 05/03/2026 | 10:00:00 | 123 | 68 | 9:58:00 | 63 | 9:00:00 | 68 | 62 | 9:04:02 | 49 | 9:56:01 | 52.15 | 0 | 4.4 | 158 | 66 | 69 | 63 | 64 | |
| 05/03/2026 | 11:00:00 | 123 | 71 | 10:46:02 | 68 | 10:02:01 | 70 | 55 | 10:02:05 | 44 | 10:55:04 | 51.6 | 0 | 4.2 | 181 | 71 | 73 | 66 | 67 | |
| 05/03/2026 | 12:00:00 | 123 | 73 | 11:51:01 | 70 | 11:01:01 | 72 | 55 | 11:22:00 | 40 | 11:57:01 | 44.47 | 0 | 4.1 | 179 | 74 | 76 | 68 | 69 | |
| 05/03/2026 | 13:00:00 | 123 | 74 | 12:52:01 | 72 | 12:00:00 | 74 | 50 | 12:02:02 | 38 | 12:35:03 | 40.87 | 0 | 2.6 | 226 | 78 | 79 | 70 | 71 | |
| 05/03/2026 | 14:00:00 | 123 | 75 | 13:50:03 | 73 | 13:01:05 | 75 | 48 | 13:09:00 | 36 | 13:25:02 | 40.85 | 0 | 3.4 | 247 | 79 | 80 | 72 | 73 | |
| 05/03/2026 | 15:00:00 | 123 | 77 | 14:50:00 | 75 | 14:12:03 | 76 | 46 | 14:02:01 | 35 | 14:15:00 | 39.69 | 0 | 4.7 | 281 | 80 | 79 | 74 | 74 | |
| 05/03/2026 | 16:00:00 | 123 | 77 | 15:59:05 | 76 | 15:11:05 | 77 | 44 | 15:34:04 | 34 | 15:48:01 | 35.96 | 0 | 4.5 | 269 | 79 | 78 | 74 | 75 | |
| 05/03/2026 | 17:00:00 | 123 | 78 | 16:03:04 | 76 | 17:00:00 | 76 | 41 | 16:13:03 | 33 | 16:04:01 | 36.14 | 0 | 3.7 | 269 | 78 | 77 | 74 | 74 | |
| 05/03/2026 | 18:00:00 | 123 | 77 | 17:06:00 | 75 | 17:59:05 | 75 | 43 | 17:37:03 | 36 | 17:00:00 | 41.1 | 0 | 2.6 | 243 | 75 | 74 | 74 | 73 | |
| 05/03/2026 | 19:00:00 | 123 | 75 | 18:00:00 | 68 | 18:59:03 | 68 | 62 | 18:59:05 | 40 | 18:01:00 | 61.78 | 0 | 0.4 | 216 | 73 | 72 | 73 | 72 | |
| 05/03/2026 | 20:00:00 | 123 | 67 | 19:00:01 | 63 | 19:52:03 | 63 | 74 | 19:53:02 | 62 | 19:00:03 | 71.51 | 0 | 0.0 | 0 | 71 | 70 | 71 | 71 | |
| 05/03/2026 | 21:00:00 | 123 | 65 | 20:26:00 | 63 | 20:02:03 | 64 | 71 | 20:00:00 | 65 | 20:11:02 | 67.02 | 0 | 0.0 | 164 | 69 | 68 | 70 | 70 | |
| 05/03/2026 | 22:00:00 | 123 | 64 | 21:11:02 | 62 | 21:31:05 | 63 | 69 | 21:26:03 | 65 | 21:11:01 | 66.05 | 0 | 0.2 | 170 | 68 | 67 | 69 | 69 | |
| 05/03/2026 | 23:00:00 | 123 | 64 | 22:26:03 | 63 | 22:57:05 | 63 | 68 | 22:58:05 | 65 | 22:26:01 | 67.98 | 0 | 0.7 | 181 | 67 | 66 | 68 | 68 | |
| 05/04/2026 | 0:00:00 | 124 | 63 | 23:37:01 | 63 | 23:54:03 | 63 | 69 | 23:54:04 | 67 | 23:37:01 | 68.7 | 0 | 3.2 | 179 | 66 | 65 | 67 | 67 | |
| 05/04/2026 | 1:00:00 | 124 | 63 | 0:05:05 | 62 | 0:57:02 | 62 | 71 | 0:56:04 | 68 | 0:05:04 | 70.39 | 0 | 1.6 | 180 | 65 | 65 | 67 | 66 | |
| 05/04/2026 | 2:00:00 | 124 | 62 | 1:00:00 | 60 | 1:55:01 | 60 | 74 | 1:55:00 | 70 | 1:00:00 | 74.39 | 0 | 0.1 | 185 | 64 | 64 | 66 | 66 | |
| 05/04/2026 | 3:00:00 | 124 | 60 | 2:00:00 | 59 | 2:59:03 | 59 | 78 | 3:00:00 | 74 | 2:00:01 | 77.96 | 0 | 0.0 | 0 | 64 | 63 | 65 | 65 | |
| 05/04/2026 | 4:00:00 | 124 | 59 | 3:01:02 | 58 | 3:59:04 | 58 | 81 | 4:00:00 | 78 | 3:00:00 | 80.5 | 0 | 0.0 | 0 | 63 | 63 | 65 | 65 | |
| 05/04/2026 | 5:00:00 | 124 | 58 | 4:21:04 | 58 | 4:51:01 | 58 | 82 | 4:56:04 | 81 | 4:00:01 | 81.8 | 0 | 0.0 | 0 | 63 | 62 | 64 | 64 | |
| 05/04/2026 | 6:00:00 | 124 | 60 | 6:00:00 | 58 | 5:05:03 | 60 | 82 | 5:07:01 | 79 | 5:59:05 | 78.66 | 0 | 0.0 | 189 | 62 | 62 | 64 | 64 | |
| 05/04/2026 | 7:00:00 | 124 | 64 | 6:59:05 | 60 | 6:00:00 | 64 | 79 | 6:00:02 | 73 | 6:52:02 | 74.43 | 0 | 2.4 | 191 | 62 | 63 | 64 | 64 | |
| 05/04/2026 | 8:00:00 | 124 | 68 | 7:59:04 | 64 | 7:00:00 | 68 | 74 | 7:00:00 | 65 | 7:58:04 | 65.4 | 0 | 5.1 | 205 | 64 | 65 | 64 | 64 | |
| 05/04/2026 | 9:00:00 | 124 | 72 | 8:51:03 | 68 | 8:00:04 | 71 | 68 | 8:02:04 | 59 | 8:56:02 | 62.41 | 0 | 7.9 | 218 | 66 | 68 | 65 | 65 | |
| 05/04/2026 | 10:00:00 | 124 | 76 | 9:58:03 | 71 | 9:02:04 | 76 | 63 | 9:07:00 | 49 | 9:59:00 | 51.35 | 0 | 8.3 | 216 | 69 | 71 | 66 | 67 | |
| 05/04/2026 | 11:00:00 | 124 | 78 | 10:45:02 | 76 | 10:03:00 | 77 | 54 | 10:03:04 | 41 | 10:59:02 | 42.36 | 0 | 11.6 | 222 | 73 | 74 | 68 | 69 | |
| 05/04/2026 | 12:00:00 | 124 | 80 | 11:59:05 | 77 | 11:00:05 | 80 | 48 | 11:20:03 | 37 | 11:48:00 | 43.23 | 0 | 11.4 | 216 | 75 | 77 | 70 | 71 | |
| 05/04/2026 | 13:00:00 | 124 | 80 | 12:59:01 | 78 | 12:28:05 | 80 | 45 | 12:03:00 | 39 | 12:19:00 | 40.13 | 0 | 12.6 | 213 | 78 | 79 | 72 | 72 | |
| 05/04/2026 | 14:00:00 | 124 | 81 | 13:14:03 | 79 | 13:10:04 | 80 | 45 | 13:57:01 | 38 | 13:05:01 | 42.02 | 0 | 13.1 | 209 | 79 | 80 | 73 | 73 | |
| 05/04/2026 | 15:00:00 | 124 | 81 | 14:31:01 | 79 | 14:02:00 | 80 | 44 | 14:13:05 | 39 | 14:53:03 | 41.41 | 0 | 12.8 | 201 | 80 | 80 | 74 | 74 | |
| 05/04/2026 | 16:00:00 | 124 | 81 | 15:33:00 | 79 | 15:45:02 | 79 | 44 | 15:59:02 | 39 | 15:10:04 | 43.36 | 0 | 13.3 | 200 | 80 | 79 | 74 | 74 | |
| 05/04/2026 | 17:00:00 | 124 | 80 | 16:02:03 | 77 | 16:59:00 | 77 | 45 | 16:38:00 | 39 | 16:04:04 | 44 | 0 | 12.1 | 203 | 78 | 77 | 74 | 74 | |
| 05/04/2026 | 18:00:00 | 124 | 77 | 17:00:00 | 75 | 17:59:03 | 75 | 49 | 17:58:05 | 43 | 17:00:02 | 48.33 | 0 | 10.9 | 196 | 76 | 74 | 73 | 73 | |
| 05/04/2026 | 19:00:00 | 124 | 75 | 18:00:01 | 72 | 18:55:01 | 72 | 56 | 18:54:05 | 48 | 18:04:04 | 55.04 | 0 | 6.8 | 190 | 73 | 72 | 72 | 72 | |
| 05/04/2026 | 20:00:00 | 124 | 72 | 19:00:00 | 70 | 19:59:00 | 70 | 57 | 19:33:04 | 55 | 19:01:02 | 56.61 | 0 | 5.6 | 185 | 71 | 70 | 71 | 71 | |
| 05/04/2026 | 21:00:00 | 124 | 70 | 20:00:03 | 68 | 20:59:04 | 68 | 60 | 20:58:00 | 57 | 20:02:03 | 59.45 | 0 | 4.8 | 184 | 70 | 69 | 70 | 70 | |
| 05/04/2026 | 22:00:00 | 124 | 68 | 21:00:02 | 67 | 21:58:00 | 67 | 61 | 21:58:02 | 59 | 21:28:05 | 60.17 | 0 | 3.4 | 184 | 68 | 68 | 69 | 69 | |
| 05/04/2026 | 23:00:00 | 124 | 67 | 22:00:00 | 66 | 22:53:01 | 66 | 62 | 22:53:01 | 60 | 22:06:02 | 61.72 | 0 | 2.7 | 182 | 67 | 67 | 68 | 68 | |
| 05/05/2026 | 0:00:00 | 125 | 67 | 23:07:03 | 65 | 23:57:01 | 66 | 65 | 23:56:04 | 61 | 23:00:01 | 64.2 | 0 | 3.5 | 181 | 66 | 66 | 68 | 67 | |
| 05/05/2026 | 1:00:00 | 125 | 66 | 0:03:04 | 65 | 0:25:02 | 65 | 67 | 1:00:00 | 64 | 0:00:05 | 66.57 | 0 | 4.2 | 181 | 66 | 66 | 67 | 67 | |
| 05/05/2026 | 2:00:00 | 125 | 65 | 1:10:03 | 64 | 1:54:01 | 65 | 69 | 1:55:00 | 66 | 1:11:03 | 68.65 | 0 | 3.8 | 181 | 65 | 65 | 67 | 66 | |
| 05/05/2026 | 3:00:00 | 125 | 65 | 2:01:00 | 63 | 2:59:05 | 63 | 71 | 2:59:05 | 68 | 2:22:02 | 70.93 | 0 | 6.0 | 182 | 65 | 65 | 66 | 66 | |
| 05/05/2026 | 4:00:00 | 125 | 63 | 3:00:00 | 62 | 3:58:02 | 63 | 74 | 3:58:03 | 71 | 3:00:01 | 73.44 | 0 | 4.3 | 180 | 64 | 64 | 66 | 65 | |
| 05/05/2026 | 5:00:00 | 125 | 63 | 4:00:00 | 62 | 4:52:03 | 62 | 76 | 4:53:00 | 73 | 4:00:02 | 75.81 | 0 | 3.4 | 181 | 64 | 64 | 65 | 65 | |
| 05/05/2026 | 6:00:00 | 125 | 63 | 5:59:04 | 62 | 5:22:05 | 63 | 76 | 5:23:02 | 76 | 5:59:03 | 75.55 | 0 | 6.8 | 182 | 64 | 64 | 65 | 65 | |
| 05/05/2026 | 7:00:00 | 125 | 67 | 6:54:05 | 63 | 6:00:01 | 67 | 76 | 6:02:04 | 69 | 6:56:00 | 70.81 | 0 | 6.3 | 189 | 64 | 64 | 65 | 65 | |
| 05/05/2026 | 8:00:00 | 125 | 68 | 7:59:03 | 66 | 7:12:02 | 68 | 72 | 7:15:03 | 70 | 7:32:05 | 70.48 | 0 | 6.2 | 181 | 65 | 66 | 65 | 65 | |
| 05/05/2026 | 9:00:00 | 125 | 69 | 8:10:01 | 68 | 8:48:03 | 68 | 74 | 8:57:03 | 70 | 8:03:05 | 73.28 | 0 | 8.1 | 189 | 66 | 66 | 66 | 66 | |
| 05/05/2026 | 10:00:00 | 125 | 70 | 9:59:02 | 68 | 9:00:01 | 70 | 75 | 9:43:00 | 72 | 9:07:01 | 73.48 | 0 | 10.3 | 185 | 67 | 67 | 66 | 66 | |
| 05/05/2026 | 11:00:00 | 125 | 73 | 10:36:00 | 70 | 10:00:01 | 72 | 74 | 10:00:03 | 70 | 10:36:02 | 71.5 | 0 | 12.6 | 191 | 68 | 69 | 66 | 67 | |
| 05/05/2026 | 12:00:00 | 125 | 72 | 11:00:01 | 72 | 11:34:03 | 72 | 73 | 11:59:05 | 71 | 11:00:04 | 73.46 | 0 | 11.3 | 192 | 69 | 69 | 67 | 67 | |
| 05/05/2026 | 13:00:00 | 125 | 73 | 13:00:00 | 72 | 12:16:04 | 73 | 74 | 12:20:02 | 72 | 12:59:05 | 72.32 | 0 | 12.3 | 184 | 69 | 69 | 67 | 68 | |
| 05/05/2026 | 14:00:00 | 125 | 76 | 13:55:01 | 73 | 13:01:05 | 76 | 72 | 13:03:05 | 67 | 13:54:03 | 68.31 | 0 | 11.9 | 185 | 69 | 70 | 68 | 68 | |
| 05/05/2026 | 15:00:00 | 125 | 77 | 14:09:00 | 74 | 14:50:01 | 74 | 76 | 14:53:02 | 67 | 14:10:02 | 74.94 | 0 | 12.6 | 190 | 70 | 70 | 68 | 68 | |
| 05/05/2026 | 16:00:00 | 125 | 75 | 15:11:00 | 73 | 15:56:05 | 73 | 79 | 15:58:04 | 73 | 15:11:05 | 78.91 | 0 | 11.8 | 189 | 70 | 70 | 69 | 69 | |
| 05/05/2026 | 17:00:00 | 125 | 74 | 16:55:04 | 73 | 16:01:05 | 74 | 79 | 16:05:00 | 76 | 16:56:04 | 75.94 | 0 | 9.6 | 181 | 70 | 70 | 69 | 69 | |
| 05/05/2026 | 18:00:00 | 125 | 75 | 17:42:05 | 74 | 17:04:04 | 75 | 76 | 17:03:01 | 73 | 17:55:01 | 72.93 | 0 | 9.5 | 169 | 70 | 70 | 69 | 69 | |
| 05/05/2026 | 19:00:00 | 125 | 75 | 18:34:05 | 75 | 18:50:02 | 75 | 73 | 18:07:02 | 72 | 18:35:05 | 73.08 | 0 | 8.9 | 175 | 70 | 69 | 69 | 69 | |
| 05/05/2026 | 20:00:00 | 125 | 75 | 19:02:05 | 75 | 19:53:05 | 75 | 75 | 19:54:04 | 73 | 19:02:04 | 74.4 | 0 | 7.7 | 182 | 69 | 69 | 69 | 69 | |
| 05/05/2026 | 21:00:00 | 125 | 75 | 20:42:05 | 75 | 20:13:05 | 75 | 76 | 20:51:05 | 74 | 20:06:02 | 75.26 | 0 | 8.5 | 181 | 69 | 69 | 69 | 68 | |
| 05/05/2026 | 22:00:00 | 125 | 75 | 21:11:05 | 74 | 21:59:04 | 74 | 77 | 22:00:00 | 75 | 21:00:01 | 77.34 | 0 | 7.3 | 188 | 69 | 69 | 68 | 68 | |
| 05/05/2026 | 23:00:00 | 125 | 75 | 22:32:03 | 74 | 22:00:01 | 75 | 79 | 22:55:00 | 77 | 22:17:05 | 78.38 | 0 | 7.9 | 190 | 69 | 69 | 68 | 68 | |
| 05/06/2026 | 0:00:00 | 126 | 75 | 23:32:04 | 75 | 23:01:00 | 75 | 79 | 23:57:01 | 78 | 23:00:05 | 79.17 | 0 | 10.0 | 194 | 69 | 69 | 68 | 68 | |
| 05/06/2026 | 1:00:00 | 126 | 75 | 0:15:00 | 75 | 0:56:02 | 75 | 81 | 0:57:02 | 79 | 0:00:02 | 81 | 0 | 11.5 | 197 | 69 | 69 | 68 | 68 | |
| 05/06/2026 | 2:00:00 | 126 | 75 | 1:03:03 | 74 | 1:32:04 | 75 | 83 | 1:59:02 | 81 | 1:00:01 | 82.7 | 0 | 11.0 | 205 | 69 | 69 | 68 | 68 | |
| 05/06/2026 | 3:00:00 | 126 | 75 | 2:42:00 | 75 | 2:00:01 | 75 | 83 | 3:00:00 | 83 | 2:43:01 | 83.1 | 0 | 9.5 | 211 | 69 | 69 | 69 | 69 | |
| 05/06/2026 | 4:00:00 | 126 | 75 | 3:06:04 | 61 | 4:00:00 | 61 | 84 | 3:37:02 | 73 | 3:50:04 | 83 | 0 | 7.4 | 220 | 69 | 69 | 69 | 69 | |
| Average | 66.13 | 64.32 | 65.16 | 70.71 | 64.87 | 67.86 | 0 | 3.09 | 0 | 67.79 | 67.77 | 67.65 | 67.61 | |||||||
| Total | 0.57 |